PAKT/KTN METAR and TAF weather

Enter ICAO airport designator
Station Type Date Time Source
PAKT METAR 2019/12/10 18:53 UTC NOAA

PAKT 101853Z 15011G16KT 6SM -RA BR FEW016 OVC028 06/04 A2979 RMK SLP090 HARBOR WND 09030KT VIS W 2V4 P0017 T00610039 VIA AUTODIAL


Station Type Date Time Source
PAKT Decoded METAR 2019/12/10 18:53 UTC NOAA

KETCHIKAN INTERNATIONAL AIRPORT , AK, United States (PAKT) 55-21N 131-43W 25M
Dec 10, 2019 - 01:53 PM EST / 2019.12.10 1853 UTC
Wind: from the SSE (150 degrees) at 13 MPH (11 KT) gusting to 18 MPH (16 KT):0
Visibility: 6 mile(s):0
Sky conditions: overcast
Weather: light rain; mist
Precipitation last hour: 0.17 inches
Temperature: 43.0 F (6.1 C)
Dew Point: 39.0 F (3.9 C)
Relative Humidity: 85%
Pressure (altimeter): 29.79 in. Hg (1008 hPa)
ob: PAKT 101853Z 15011G16KT 6SM -RA BR FEW016 OVC028 06/04 A2979 RMK SLP090 HARBOR WND 09030KT VIS W 2V4 P0017 T00610039 VIA AUTODIAL
cycle: 19

Station Type Date Time Source
PAKT TAF 2019/12/10 18:22 UTC NOAA

TAF PAKT 101720Z 1018/1118 17010KT 6SM -RA BR OVC035 WS020/13035KT
FM102200 14006KT 4SM -SHRA BR SCT015 OVC025
FM110200 15006KT 6SM BR VCSH OVC015
FM110900 15010KT 5SM -RA BR OVC015
FM111500 15012KT 4SM -RA BR OVC015
AMD LTD TO CLD VIS AND WIND 1106/1115

Example: see airport list